Time;durP1;ratioP1;P1;durP2;ratioP2;P2;SDS_P1;SDS_P2;PMS_P1;PMS_P2;Temp;Humidity;BMP_temperature;BMP_pressure;BME280_temperature;BME280_humidity;BME280_pressure;Samples;Min_cycle;Max_cycle;Signal;HPM_P1;HPM_P2
2022/12/06 00:01:08;;;;;;;24.85;13.77;;;;;;;2.30;100.00;101688.34;4998669;28;20629;-78
2022/12/06 00:03:35;;;;;;;26.83;15.05;;;;;;;2.40;100.00;101705.25;5002441;28;20767;-79
2022/12/06 00:06:09;;;;;;;28.83;13.48;;;;;;;2.11;100.00;101679.56;5004911;28;20037;-82
2022/12/06 00:08:35;;;;;;;27.90;15.05;;;;;;;1.79;100.00;101620.84;5002052;28;20363;-80
2022/12/06 00:11:05;;;;;;;20.52;13.68;;;;;;;2.02;100.00;101652.28;5002770;28;20054;-80
2022/12/06 00:13:31;;;;;;;22.85;14.23;;;;;;;1.90;100.00;101640.47;5006628;28;20529;-81
2022/12/06 00:16:00;;;;;;;43.42;13.73;;;;;;;2.07;100.00;101651.72;5004341;28;20042;-81
2022/12/06 00:18:25;;;;;;;25.23;12.82;;;;;;;2.32;100.00;101718.69;5007461;28;20057;-82
2022/12/06 00:20:51;;;;;;;20.27;10.60;;;;;;;1.19;100.00;101490.81;5008889;28;20065;-81
2022/12/06 00:23:16;;;;;;;22.58;12.52;;;;;;;2.54;100.00;101719.84;5008734;28;20151;-81
2022/12/06 00:25:42;;;;;;;22.45;14.10;;;;;;;1.57;100.00;101556.72;5007894;28;20062;-80
2022/12/06 00:28:07;;;;;;;25.55;13.40;;;;;;;2.62;100.00;101717.66;5006677;28;20049;-80
2022/12/06 00:30:33;;;;;;;22.98;14.18;;;;;;;2.49;100.00;101693.69;5007678;28;20142;-77
2022/12/06 00:32:58;;;;;;;35.55;13.65;;;;;;;1.63;100.00;101567.38;5015733;28;20093;-77
2022/12/06 00:35:24;;;;;;;27.58;11.35;;;;;;;1.72;100.00;101572.16;4996316;28;20088;-76
2022/12/06 00:37:49;;;;;;;26.95;12.60;;;;;;;2.40;100.00;101689.72;5003707;28;20042;-78
2022/12/06 00:40:15;;;;;;;29.63;12.63;;;;;;;2.34;100.00;101705.81;5008815;28;20042;-76
2022/12/06 00:42:40;;;;;;;15.70;11.57;;;;;;;2.30;100.00;101691.81;5007598;28;20061;-76
2022/12/06 00:45:06;;;;;;;31.60;13.32;;;;;;;2.57;100.00;101722.59;5004677;28;20661;-77
2022/12/06 00:47:32;;;;;;;21.83;14.30;;;;;;;1.54;100.00;101548.75;5007138;28;20029;-79
2022/12/06 00:49:58;;;;;;;30.40;11.77;;;;;;;2.47;100.00;101712.56;5006486;28;20043;-76
2022/12/06 00:52:23;;;;;;;18.45;10.57;;;;;;;2.51;100.00;101701.56;4998407;28;20057;-77
2022/12/06 00:54:49;;;;;;;18.00;10.63;;;;;;;2.58;100.00;101706.25;5008493;28;20049;-79
2022/12/06 00:57:14;;;;;;;49.25;13.82;;;;;;;1.82;100.00;101589.97;5008969;28;20049;-75
2022/12/06 00:59:40;;;;;;;23.15;11.10;;;;;;;1.66;100.00;101562.41;5009292;28;20383;-77
2022/12/06 01:02:06;;;;;;;18.13;10.35;;;;;;;2.12;100.00;101651.97;5003750;28;20061;-79
2022/12/06 01:04:35;;;;;;;38.80;13.02;;;;;;;1.58;100.00;101557.59;4989105;28;20046;-81
2022/12/06 01:07:03;;;;;;;20.88;11.65;;;;;;;2.28;100.00;101682.19;4988380;28;20125;-78
2022/12/06 01:09:29;;;;;;;32.50;11.63;;;;;;;2.00;100.00;101628.03;4987866;28;20088;-79
2022/12/06 01:11:57;;;;;;;25.35;14.05;;;;;;;1.57;100.00;101558.38;4989468;28;20430;-79
2022/12/06 01:14:23;;;;;;;31.42;12.63;;;;;;;2.25;100.00;101674.25;5008158;28;20058;-79
2022/12/06 01:16:48;;;;;;;18.85;12.75;;;;;;;1.88;100.00;101617.88;4984879;28;20045;-77
2022/12/06 01:19:15;;;;;;;18.67;11.20;;;;;;;2.15;100.00;101675.44;5007744;28;20660;-78
2022/12/06 01:21:40;;;;;;;21.40;11.07;;;;;;;2.33;100.00;101693.69;4996644;28;20541;-77
2022/12/06 01:24:06;;;;;;;16.80;11.65;;;;;;;2.30;100.00;101690.94;4988664;28;20062;-78
2022/12/06 01:26:34;;;;;;;17.25;10.20;;;;;;;2.30;100.00;101693.53;4989254;28;20085;-80
2022/12/06 01:29:00;;;;;;;19.15;11.25;;;;;;;1.33;100.00;101526.91;5004542;28;20413;-80
2022/12/06 01:31:27;;;;;;;15.70;10.80;;;;;;;2.09;100.00;101669.94;5007509;28;20077;-79
2022/12/06 01:33:52;;;;;;;18.85;12.27;;;;;;;2.30;100.00;101688.34;5008264;28;20057;-78
2022/12/06 01:36:20;;;;;;;16.92;10.65;;;;;;;1.41;100.00;101525.66;5012138;28;20476;-77
2022/12/06 01:38:53;;;;;;;14.35;9.35;;;;;;;2.32;100.00;101681.56;5009768;28;20092;-78
2022/12/06 01:41:21;;;;;;;14.23;7.93;;;;;;;1.30;100.00;101506.94;5006879;28;20100;-75
2022/12/06 01:43:47;;;;;;;14.93;8.75;;;;;;;1.26;100.00;101505.91;5001007;28;20100;-75
2022/12/06 01:46:48;;;;;;;15.98;9.52;;;;;;;2.26;100.00;101684.69;4999345;28;20050;-79
2022/12/06 01:49:19;;;;;;;27.95;10.25;;;;;;;1.86;100.00;101616.91;5002208;28;20069;-75
2022/12/06 01:51:53;;;;;;;18.00;10.20;;;;;;;1.34;100.00;101521.81;5007686;28;20049;-77
2022/12/06 01:54:21;;;;;;;15.65;7.68;;;;;;;2.13;100.00;101660.63;5007638;28;20100;-81
2022/12/06 01:56:48;;;;;;;35.55;9.65;;;;;;;1.93;100.00;101608.69;5006414;28;20044;-80
2022/12/06 01:59:14;;;;;;;13.88;9.25;;;;;;;1.87;100.00;101598.91;5007207;28;20034;-80
2022/12/06 02:01:40;;;;;;;12.35;7.00;;;;;;;1.49;100.00;101532.09;5004520;28;20493;-82
2022/12/06 02:04:07;;;;;;;16.92;9.77;;;;;;;1.20;100.00;101482.28;5008190;28;20046;-81
2022/12/06 02:06:33;;;;;;;18.20;9.30;;;;;;;1.99;100.00;101603.84;5002361;28;20056;-81
2022/12/06 02:09:01;;;;;;;16.65;7.80;;;;;;;2.24;100.00;101631.03;5005779;28;20038;-81
2022/12/06 02:11:27;;;;;;;15.65;7.68;;;;;;;2.45;100.00;101641.63;5009094;28;20128;-79
2022/12/06 02:13:54;;;;;;;27.33;9.30;;;;;;;1.63;100.00;101476.84;5007610;28;20182;-80
2022/12/06 02:16:38;;;;;;;12.65;8.32;;;;;;;2.42;100.00;101652.72;5009273;28;20045;-81
2022/12/06 02:19:21;;;;;;;10.52;7.50;;;;;;;2.47;100.00;101647.78;5004415;28;20145;-80
2022/12/06 02:21:57;;;;;;;14.02;7.82;;;;;;;2.47;100.00;101646.09;5002718;28;20423;-82
2022/12/06 02:24:54;;;;;;;22.35;9.00;;;;;;;2.44;100.00;101645.94;4992473;28;20128;-83
2022/12/06 02:27:28;;;;;;;12.90;6.68;;;;;;;1.95;100.00;101551.81;5001219;28;20049;-82
2022/12/06 02:30:29;;;;;;;10.88;6.47;;;;;;;1.85;100.00;101493.50;5008261;28;20034;-82
2022/12/06 02:33:04;;;;;;;9.70;5.32;;;;;;;1.83;100.00;101521.91;4976105;28;20057;-81
2022/12/06 02:35:39;;;;;;;10.50;5.35;;;;;;;1.63;100.00;101482.00;5033234;28;20038;-81
2022/12/06 02:38:12;;;;;;;9.90;6.25;;;;;;;1.88;100.00;101525.59;5006794;28;20049;-81
2022/12/06 02:40:48;;;;;;;13.57;5.72;;;;;;;2.25;100.00;101594.88;5005744;28;20145;-81
2022/12/06 02:43:22;;;;;;;10.80;6.40;;;;;;;2.30;100.00;101608.94;5004484;28;20553;-81
2022/12/06 02:45:49;;;;;;;;;;;;;;;2.55;100.00;101630.94;5004450;28;20058;-80
2022/12/06 02:48:17;;;;;;;9.20;5.55;;;;;;;1.78;100.00;101489.72;4997832;28;19964;-79
2022/12/06 02:50:49;;;;;;;13.23;6.85;;;;;;;2.60;100.00;101651.91;5006028;28;20477;-82
2022/12/06 02:53:18;;;;;;;9.68;6.47;;;;;;;2.41;100.00;101613.78;5000976;28;20087;-76
2022/12/06 02:55:45;;;;;;;11.27;6.43;;;;;;;1.86;100.00;101516.00;5006499;28;20074;-81
2022/12/06 02:58:11;;;;;;;11.13;7.32;;;;;;;1.66;100.00;101470.94;5005107;28;20061;-82
2022/12/06 03:00:52;;;;;;;9.75;6.28;;;;;;;1.95;100.00;101521.66;5007905;28;20046;-81
2022/12/06 03:03:55;;;;;;;11.75;7.10;;;;;;;2.73;100.00;101611.16;4994383;28;20072;-78
2022/12/06 03:06:35;;;;;;;8.25;4.97;;;;;;;2.91;100.00;101611.22;4998407;28;20045;-76
2022/12/06 03:09:04;;;;;;;14.35;6.47;;;;;;;3.05;100.00;101619.69;5006742;28;20037;-78
2022/12/06 03:12:09;;;;;;;10.55;6.18;;;;;;;3.10;100.00;101623.38;5006128;28;20026;-77
2022/12/06 03:15:10;;;;;;;9.20;6.15;;;;;;;2.82;100.00;101615.03;5006947;28;20045;-76
2022/12/06 03:18:00;;;;;;;9.68;5.32;;;;;;;3.04;100.00;101611.81;5008777;28;20445;-78
2022/12/06 03:20:33;;;;;;;5.60;3.47;;;;;;;2.91;100.00;101602.53;5005044;28;20058;-78
2022/12/06 03:23:05;;;;;;;7.28;3.63;;;;;;;2.87;100.00;101608.38;5007323;28;20050;-76
2022/12/06 03:25:34;;;;;;;6.40;3.90;;;;;;;3.02;100.00;101598.78;5007823;28;20069;-79
2022/12/06 03:28:01;;;;;;;8.90;4.97;;;;;;;2.10;100.00;101465.47;5004566;28;20054;-79
2022/12/06 03:30:31;;;;;;;11.05;6.38;;;;;;;2.84;100.00;101592.69;5006543;28;20038;-78
2022/12/06 03:32:57;;;;;;;8.80;5.25;;;;;;;1.98;100.00;101458.81;5005155;28;20394;-76
2022/12/06 03:35:28;;;;;;;8.52;4.03;;;;;;;2.08;100.00;101463.63;5006734;28;20100;-78
2022/12/06 03:38:05;;;;;;;11.57;5.50;;;;;;;2.83;100.00;101593.47;5006321;28;20447;-77
2022/12/06 03:40:34;;;;;;;10.85;5.50;;;;;;;2.84;100.00;101601.34;5000525;28;20046;-77
2022/12/06 03:42:59;;;;;;;12.23;6.30;;;;;;;1.81;100.00;101424.31;5007756;28;20061;-79
2022/12/06 03:46:05;;;;;;;10.75;6.07;;;;;;;3.01;100.00;101584.03;5004192;28;20050;-78
2022/12/06 03:48:33;;;;;;;9.07;5.32;;;;;;;3.06;100.00;101597.22;5006055;28;20046;-78
2022/12/06 03:51:15;;;;;;;9.88;7.22;;;;;;;2.20;100.00;101486.66;5006469;28;20038;-83
2022/12/06 03:53:47;;;;;;;7.72;5.70;;;;;;;2.86;100.00;101596.25;5007441;28;20029;-82
2022/12/06 03:56:13;;;;;;;11.93;6.72;;;;;;;2.79;100.00;101599.34;5010312;28;20193;-81
2022/12/06 03:58:38;;;;;;;9.23;5.47;;;;;;;2.78;100.00;101584.59;5009887;28;20054;-80
2022/12/06 04:01:04;;;;;;;11.15;6.07;;;;;;;2.56;100.00;101562.78;5011177;28;20045;-81
2022/12/06 04:03:30;;;;;;;7.47;4.55;;;;;;;2.80;100.00;101590.75;5008881;28;20054;-81
2022/12/06 04:05:55;;;;;;;10.05;5.72;;;;;;;2.68;100.00;101583.25;5010083;28;20104;-82
2022/12/06 04:08:21;;;;;;;10.25;5.30;;;;;;;2.67;100.00;101578.84;5008909;28;20041;-80
2022/12/06 04:10:46;;;;;;;10.20;4.97;;;;;;;2.73;100.00;101597.31;5007086;28;20058;-78
2022/12/06 04:13:12;;;;;;;10.10;7.00;;;;;;;2.29;100.00;101518.22;5005015;28;20054;-79
2022/12/06 04:15:38;;;;;;;9.52;5.50;;;;;;;2.12;100.00;101483.69;5003769;28;20565;-78
2022/12/06 04:18:09;;;;;;;17.00;6.43;;;;;;;1.83;100.00;101440.78;4998244;28;20042;-79
2022/12/06 04:23:31;;;;;;;16.63;7.50;;;;;;;2.62;100.00;101563.09;5004769;28;20049;-77
2022/12/06 04:25:56;;;;;;;10.65;5.53;;;;;;;2.14;100.00;101487.25;5005774;28;20108;-78
2022/12/06 04:39:21;;;;;;;41.15;6.93;;;;;;;1.76;100.00;101439.59;5008131;28;20501;-78
2022/12/06 04:44:30;;;;;;;15.23;6.95;;;;;;;2.64;100.00;101584.78;5009049;28;20421;-78
2022/12/06 04:46:56;;;;;;;13.70;6.70;;;;;;;1.67;100.00;101416.69;5001963;28;20050;-81
2022/12/06 04:49:21;;;;;;;9.93;5.20;;;;;;;2.58;100.00;101584.47;5002260;28;20701;-82
2022/12/06 04:51:47;;;;;;;18.52;5.97;;;;;;;2.56;100.00;101564.50;5011401;28;20733;-78
2022/12/06 04:54:13;;;;;;;26.38;6.45;;;;;;;2.65;100.00;101583.97;5003085;28;20049;-78
2022/12/06 04:56:38;;;;;;;11.40;5.97;;;;;;;1.83;100.00;101444.25;5004939;28;20041;-78
2022/12/06 04:59:03;;;;;;;10.27;5.35;;;;;;;2.08;100.00;101467.13;5006426;28;20049;-78
2022/12/06 05:01:29;;;;;;;9.98;5.55;;;;;;;2.60;100.00;101551.78;5005590;28;20045;-79
2022/12/06 05:03:54;;;;;;;8.48;5.03;;;;;;;2.17;100.00;101495.16;4998927;28;20100;-79
2022/12/06 05:06:20;;;;;;;88.03;10.25;;;;;;;2.50;100.00;101583.19;5007553;28;20752;-79
2022/12/06 05:08:45;;;;;;;8.88;4.18;;;;;;;2.70;100.00;101582.50;5003139;28;20088;-76
2022/12/06 05:11:11;;;;;;;63.17;10.32;;;;;;;2.46;100.00;101526.88;5009388;28;20034;-77
2022/12/06 05:13:38;;;;;;;18.15;8.07;;;;;;;2.38;100.00;101495.38;5005238;28;20046;-76
2022/12/06 05:16:06;;;;;;;13.00;6.00;;;;;;;2.15;100.00;101445.00;5007540;28;20054;-77
2022/12/06 05:18:32;;;;;;;14.10;6.78;;;;;;;2.00;100.00;101428.72;5010833;28;20056;-78
2022/12/06 05:21:04;;;;;;;24.73;7.63;;;;;;;2.06;100.00;101434.19;5006088;28;20041;-78
2022/12/06 05:23:31;;;;;;;27.98;8.18;;;;;;;1.95;100.00;101419.84;5008211;28;20048;-79
2022/12/06 05:26:01;;;;;;;62.38;12.15;;;;;;;2.07;100.00;101452.41;5008074;28;20049;-77
2022/12/06 05:28:28;;;;;;;76.30;9.85;;;;;;;2.79;100.00;101550.09;5007851;28;20042;-77
2022/12/06 05:30:53;;;;;;;37.50;8.10;;;;;;;2.14;100.00;101425.13;5008083;28;20054;-78
2022/12/06 05:33:19;;;;;;;79.35;10.23;;;;;;;1.97;100.00;101406.16;5007433;28;20046;-78
2022/12/06 05:35:45;;;;;;;19.08;7.15;;;;;;;2.95;100.00;101556.13;5009161;28;20046;-75
2022/12/06 05:38:10;;;;;;;11.68;7.72;;;;;;;2.87;100.00;101499.53;5003430;28;20049;-76
2022/12/06 05:40:38;;;;;;;11.82;7.30;;;;;;;3.03;100.00;101517.59;5000498;28;20042;-78
2022/12/06 05:43:04;;;;;;;154.90;14.30;;;;;;;2.11;100.00;101412.03;5004930;28;20116;-78
2022/12/06 05:45:30;;;;;;;17.45;9.50;;;;;;;1.82;100.00;101377.78;5000504;28;20046;-78
2022/12/06 05:47:55;;;;;;;42.55;9.50;;;;;;;2.75;100.00;101536.97;5000606;28;20137;-81
2022/12/06 05:50:21;;;;;;;96.55;16.40;;;;;;;2.78;100.00;101556.97;5006272;28;20030;-79
2022/12/06 05:52:46;;;;;;;50.20;11.00;;;;;;;2.89;100.00;101549.72;5004565;28;20490;-77
2022/12/06 05:55:12;;;;;;;32.58;11.38;;;;;;;2.76;100.00;101563.78;4990480;28;20156;-80
2022/12/06 05:57:37;;;;;;;26.55;10.18;;;;;;;2.37;100.00;101498.78;4987488;28;20074;-78
2022/12/06 06:00:04;;;;;;;74.00;13.95;;;;;;;1.87;100.00;101416.84;4988207;28;20062;-78
2022/12/06 06:02:29;;;;;;;55.50;13.15;;;;;;;2.41;100.00;101516.28;5009082;28;20081;-77
2022/12/06 06:04:54;;;;;;;25.38;10.63;;;;;;;2.73;100.00;101571.41;5007244;28;20073;-76
2022/12/06 06:07:20;;;;;;;155.77;18.88;;;;;;;2.80;100.00;101567.41;5007037;28;20053;-77
2022/12/06 06:09:45;;;;;;;76.10;14.73;;;;;;;2.00;100.00;101428.72;5007430;28;20056;-76
2022/12/06 06:12:11;;;;;;;54.58;14.10;;;;;;;2.83;100.00;101570.16;5002102;28;20053;-77
2022/12/06 06:14:36;;;;;;;81.97;15.75;;;;;;;1.92;100.00;101405.03;5007224;28;20757;-76
2022/12/06 06:17:02;;;;;;;127.40;17.45;;;;;;;2.08;100.00;101420.53;5006573;28;20057;-78
2022/12/06 06:19:27;;;;;;;31.38;13.70;;;;;;;2.08;100.00;101423.13;5006187;28;20050;-79
2022/12/06 06:21:53;;;;;;;56.05;12.73;;;;;;;2.18;100.00;101452.94;5005650;28;20155;-76
2022/12/06 06:24:18;;;;;;;21.25;8.18;;;;;;;2.87;100.00;101574.69;5007114;28;20068;-78
2022/12/06 06:26:44;;;;;;;80.45;12.48;;;;;;;2.58;100.00;101543.03;5007342;28;20038;-78
2022/12/06 06:29:09;;;;;;;26.35;9.60;;;;;;;2.14;100.00;101453.59;4997551;28;20054;-77
2022/12/06 06:31:34;;;;;;;52.90;10.82;;;;;;;1.92;100.00;101415.41;5002231;28;20042;-77
2022/12/06 06:34:00;;;;;;;120.75;15.95;;;;;;;2.41;100.00;101505.00;4994684;28;20052;-81
2022/12/06 06:36:25;;;;;;;92.28;13.90;;;;;;;2.79;100.00;101573.44;5000992;28;20054;-77
2022/12/06 06:38:51;;;;;;;41.05;11.02;;;;;;;2.68;100.00;101565.97;5005821;28;20026;-78
2022/12/06 06:41:17;;;;;;;67.18;13.90;;;;;;;1.87;100.00;101416.84;5007911;28;20086;-78
2022/12/06 06:43:43;;;;;;;48.80;10.65;;;;;;;1.86;100.00;101412.47;4999165;28;21057;-79
2022/12/06 06:46:09;;;;;;;38.35;11.38;;;;;;;1.83;100.00;101408.03;4997600;28;20073;-78
2022/12/06 06:48:37;;;;;;;23.30;11.45;;;;;;;2.79;100.00;101566.53;4999016;28;20046;-79
2022/12/06 06:51:06;;;;;;;21.23;8.07;;;;;;;2.53;100.00;101497.88;5005898;28;20040;-79
2022/12/06 06:53:32;;;;;;;61.67;13.32;;;;;;;2.76;100.00;101553.41;5006715;28;20117;-77
2022/12/06 06:55:59;;;;;;;125.28;18.98;;;;;;;2.37;100.00;101467.72;5001454;28;20137;-77
2022/12/06 06:58:24;;;;;;;74.55;12.00;;;;;;;1.90;100.00;101388.53;4998096;28;20145;-79
2022/12/06 07:00:58;;;;;;;84.28;18.02;;;;;;;2.07;100.00;101397.16;5000231;28;20045;-78
2022/12/06 07:03:24;;;;;;;63.55;16.33;;;;;;;2.74;100.00;101524.84;4998486;28;20049;-77
2022/12/06 07:05:55;;;;;;;118.38;19.38;;;;;;;2.74;100.00;101532.63;5002856;28;20580;-79
2022/12/06 07:08:21;;;;;;;18.98;11.45;;;;;;;2.78;100.00;101496.47;5002727;28;20065;-78
2022/12/06 07:10:47;;;;;;;69.35;14.68;;;;;;;3.04;100.00;101552.19;5002272;28;20073;-77
2022/12/06 07:13:16;;;;;;;29.02;11.98;;;;;;;2.44;100.00;101519.00;4999517;28;20050;-79
2022/12/06 07:15:41;;;;;;;15.10;9.88;;;;;;;1.82;100.00;101395.91;5006353;28;20045;-75
2022/12/06 07:18:07;;;;;;;62.03;11.07;;;;;;;2.11;100.00;101432.75;5000825;28;20107;-76
2022/12/06 07:20:33;;;;;;;129.50;18.10;;;;;;;2.78;100.00;101530.16;5025639;28;20033;-76
2022/12/06 07:22:58;;;;;;;85.38;14.77;;;;;;;2.46;100.00;101431.91;5002169;28;20116;-74
2022/12/06 07:25:27;;;;;;;79.63;14.35;;;;;;;3.03;100.00;101540.03;4998328;28;20057;-72
2022/12/06 07:27:53;;;;;;;28.08;10.95;;;;;;;2.86;100.00;101500.34;5000273;28;20120;-76
2022/12/06 07:30:19;;;;;;;71.22;12.30;;;;;;;3.01;100.00;101547.72;5004531;28;20050;-76
2022/12/06 07:32:45;;;;;;;59.92;15.75;;;;;;;2.87;100.00;101528.91;5010558;28;20719;-75
2022/12/06 07:35:10;;;;;;;20.27;12.40;;;;;;;3.10;100.00;101511.88;5002175;28;20113;-72
2022/12/06 07:37:36;;;;;;;30.52;11.40;;;;;;;3.25;100.00;101544.56;4999167;28;20133;-74
2022/12/06 07:40:01;;;;;;;26.90;11.63;;;;;;;2.30;100.00;101404.34;4998746;28;20058;-73
2022/12/06 07:45:13;;;;;;;25.95;12.52;;;;;;;3.06;100.00;101543.66;4997362;28;20057;-78
2022/12/06 07:47:43;;;;;;;36.63;11.57;;;;;;;2.03;100.00;101369.31;4994540;28;20092;-74
2022/12/06 07:50:12;;;;;;;21.25;14.02;;;;;;;3.10;100.00;101550.78;5002109;28;20046;-75
2022/12/06 07:52:38;;;;;;;56.75;12.73;;;;;;;2.98;100.00;101520.78;4997781;28;20042;-78
2022/12/06 07:55:04;;;;;;;41.95;16.13;;;;;;;3.01;100.00;101515.75;5000715;28;20504;-76
2022/12/06 07:57:30;;;;;;;25.98;14.10;;;;;;;3.07;100.00;101496.19;5001875;28;20042;-77
2022/12/06 07:59:56;;;;;;;28.80;13.00;;;;;;;3.57;100.00;101526.19;5002636;28;20641;-76
2022/12/06 08:02:24;;;;;;;35.55;15.73;;;;;;;3.08;100.00;101419.28;4995763;28;20027;-75
2022/12/06 08:04:51;;;;;;;22.17;14.07;;;;;;;3.87;100.00;101545.72;5003137;28;20127;-74
2022/12/06 08:07:17;;;;;;;24.75;14.10;;;;;;;3.66;100.00;101543.03;5004891;28;20049;-74
2022/12/06 08:09:42;;;;;;;39.60;16.30;;;;;;;3.56;100.00;101531.34;5004696;28;20124;-76
2022/12/06 08:12:08;;;;;;;43.20;15.55;;;;;;;2.94;100.00;101400.50;5003865;28;20658;-75
2022/12/06 08:14:35;;;;;;;41.83;15.07;;;;;;;2.97;100.00;101403.22;5006363;28;20781;-77
2022/12/06 08:17:04;;;;;;;66.88;20.63;;;;;;;3.40;100.00;101531.44;4994410;28;20119;-77
2022/12/06 08:19:29;;;;;;;66.32;18.95;;;;;;;3.10;100.00;101514.47;5000145;28;20540;-79
2022/12/06 08:21:55;;;;;;;85.55;20.83;;;;;;;2.93;100.00;101507.59;5005872;28;20081;-77
2022/12/06 08:24:21;;;;;;;83.43;23.50;;;;;;;3.28;100.00;101552.50;5005362;28;20050;-75
2022/12/06 08:26:51;;;;;;;75.13;22.70;;;;;;;2.83;100.00;101467.38;5006024;28;20052;-76
2022/12/06 08:29:17;;;;;;;46.95;21.77;;;;;;;2.56;100.00;101403.88;5004148;28;20041;-76
2022/12/06 08:31:44;;;;;;;157.27;25.55;;;;;;;3.37;100.00;101560.69;5005532;28;20481;-75
2022/12/06 08:34:11;;;;;;;65.90;19.65;;;;;;;3.62;100.00;101554.97;4998391;28;20057;-75
2022/12/06 08:36:38;;;;;;;177.00;28.55;;;;;;;3.55;100.00;101543.41;5008574;28;20037;-81
2022/12/06 08:39:06;;;;;;;36.67;18.27;;;;;;;3.79;100.00;101561.84;5011987;28;20037;-76
2022/12/06 08:44:17;;;;;;;92.18;22.15;;;;;;;3.25;100.00;101544.56;5008631;28;20107;-75
2022/12/06 08:46:43;;;;;;;86.03;22.35;;;;;;;2.85;100.00;101455.38;5004219;28;20042;-78
2022/12/06 08:49:10;;;;;;;120.35;24.02;;;;;;;1.13;100.00;101136.41;5008425;28;20525;-75
2022/12/06 08:51:36;;;;;;;63.78;22.20;;;;;;;3.23;100.00;101491.72;5007168;28;20084;-76
2022/12/06 08:54:05;;;;;;;92.55;22.20;;;;;;;3.32;100.00;101531.94;5007635;28;20450;-75
2022/12/06 08:56:32;;;;;;;154.07;27.67;;;;;;;3.31;100.00;101503.34;5004376;28;20129;-76
2022/12/06 08:58:58;;;;;;;57.45;18.42;;;;;;;3.60;100.00;101517.66;5005087;28;20069;-76
2022/12/06 09:01:26;;;;;;;41.30;17.20;;;;;;;3.65;100.00;101518.75;5002340;28;20054;-78
2022/12/06 09:03:52;;;;;;;50.28;19.23;;;;;;;3.48;100.00;101497.22;4997859;28;20050;-80
2022/12/06 09:06:20;;;;;;;40.30;16.48;;;;;;;2.55;100.00;101361.50;5002737;28;20052;-77
2022/12/06 09:08:46;;;;;;;71.40;19.77;;;;;;;2.86;100.00;101420.00;5028922;28;20042;-76
2022/12/06 09:11:13;;;;;;;61.63;22.98;;;;;;;3.44;100.00;101503.13;5007060;28;20462;-77
2022/12/06 09:13:40;;;;;;;49.13;17.48;;;;;;;2.65;100.00;101337.81;5007358;28;20046;-75
2022/12/06 09:16:11;;;;;;;55.60;16.42;;;;;;;3.20;100.00;101466.53;5005205;28;20042;-76
2022/12/06 09:18:37;;;;;;;30.85;16.38;;;;;;;3.31;100.00;101454.06;5012919;28;20137;-75
2022/12/06 09:21:07;;;;;;;35.42;18.15;;;;;;;2.71;100.00;101343.28;5013024;28;20357;-76
2022/12/06 09:23:36;;;;;;;63.40;17.63;;;;;;;3.17;100.00;101436.16;5010994;28;20045;-75
2022/12/06 09:26:04;;;;;;;34.00;14.23;;;;;;;3.50;100.00;101482.63;5004445;28;20085;-79
2022/12/06 09:28:30;;;;;;;79.20;26.55;;;;;;;3.48;100.00;101484.25;4998523;28;20077;-76
2022/12/06 09:30:56;;;;;;;108.25;25.00;;;;;;;2.59;100.00;101321.97;5005792;28;20058;-76
2022/12/06 09:33:31;;;;;;;100.65;25.10;;;;;;;3.58;100.00;101468.31;5008229;28;20049;-83
2022/12/06 09:36:00;;;;;;;69.50;26.00;;;;;;;3.49;100.00;101467.88;5002441;28;20498;-76
2022/12/06 09:38:28;;;;;;;40.10;23.27;;;;;;;2.86;100.00;101327.56;5002571;28;20064;-75
2022/12/06 09:41:12;;;;;;;65.32;27.13;;;;;;;3.74;100.00;101461.19;4995056;28;20053;-74
2022/12/06 09:43:59;;;;;;;37.90;17.38;;;;;;;3.62;100.00;101464.13;4996255;28;20053;-74
2022/12/06 09:46:24;;;;;;;26.65;18.30;;;;;;;3.51;100.00;101458.47;5001412;28;20487;-75
2022/12/06 09:48:56;;;;;;;64.88;21.98;;;;;;;3.67;100.00;101459.16;5007238;28;20417;-77
2022/12/06 09:51:30;;;;;;;92.18;16.58;;;;;;;3.56;100.00;101459.56;5005283;28;20042;-74
2022/12/06 09:54:32;;;;;;;46.25;17.70;;;;;;;3.71;100.00;101442.91;5006644;28;20048;-75
2022/12/06 09:57:11;;;;;;;86.25;22.27;;;;;;;3.37;100.00;101394.66;4983420;28;20185;-75
2022/12/06 10:00:03;;;;;;;97.70;18.33;;;;;;;3.64;100.00;101440.84;5007276;28;20096;-75
2022/12/06 10:02:58;;;;;;;49.97;14.65;;;;;;;3.67;100.00;101425.41;5009854;28;20057;-76
2022/12/06 10:05:46;;;;;;;70.55;19.20;;;;;;;3.15;100.00;101343.56;5007615;28;20068;-75
2022/12/06 10:08:27;;;;;;;80.68;19.95;;;;;;;3.68;100.00;101429.78;5000703;28;20098;-73
2022/12/06 10:11:20;;;;;;;101.75;19.70;;;;;;;3.48;100.00;101414.19;5005927;28;20145;-78
2022/12/06 10:14:25;;;;;;;272.77;31.60;;;;;;;3.73;100.00;101433.47;5022148;28;20057;-75
2022/12/06 10:17:00;;;;;;;53.30;17.77;;;;;;;3.63;100.00;101429.59;5005907;28;20042;-75
2022/12/06 10:19:44;;;;;;;101.03;21.35;;;;;;;3.75;100.00;101414.56;5004595;28;20077;-75
2022/12/06 10:22:13;;;;;;;54.38;17.77;;;;;;;3.68;100.00;101420.28;5006358;28;20045;-74
2022/12/06 10:25:11;;;;;;;65.05;21.73;;;;;;;3.24;100.00;101343.09;5007172;28;20068;-74
2022/12/06 10:27:43;;;;;;;107.50;19.77;;;;;;;3.67;100.00;101415.91;5007012;28;20076;-74
2022/12/06 10:30:11;;;;;;;27.98;15.05;;;;;;;2.71;100.00;101265.53;5008653;28;20042;-74
2022/12/06 10:33:05;;;;;;;105.47;20.98;;;;;;;3.08;100.00;101316.47;5014942;28;20026;-75
2022/12/06 10:35:40;;;;;;;56.50;18.55;;;;;;;3.12;100.00;101313.19;5004910;28;20075;-75
2022/12/06 10:38:29;;;;;;;71.40;17.95;;;;;;;3.63;100.00;101395.84;5005760;28;20058;-73
2022/12/06 10:41:25;;;;;;;110.05;19.83;;;;;;;3.67;100.00;101394.25;5015192;28;20053;-75
2022/12/06 10:44:24;;;;;;;34.15;16.38;;;;;;;3.68;100.00;101388.28;4992708;28;20056;-73
2022/12/06 10:47:15;;;;;;;36.45;18.20;;;;;;;3.59;100.00;101378.38;4999965;28;20057;-74
2022/12/06 10:50:28;;;;;;;31.73;16.58;;;;;;;3.72;100.00;101392.75;5004984;28;20141;-75
2022/12/06 10:53:24;;;;;;;40.28;19.98;;;;;;;-146.26;100.00;59860.63;4981959;28;20050;-75
2022/12/06 10:56:08;;;;;;;45.63;14.93;;;;;;;-146.26;100.00;59860.63;4968997;28;20066;-74
2022/12/06 10:58:49;;;;;;;42.92;17.27;;;;;;;-146.26;100.00;59860.63;5001712;28;20142;-74
2022/12/06 11:01:22;;;;;;;45.47;16.90;;;;;;;-146.26;100.00;59860.63;5006757;28;20147;-75
2022/12/06 11:04:02;;;;;;;41.08;14.95;;;;;;;-146.26;100.00;59860.63;5000671;28;20041;-75
2022/12/06 11:06:58;;;;;;;32.55;15.40;;;;;;;-146.26;100.00;59860.63;5005591;28;20046;-75
2022/12/06 11:09:39;;;;;;;76.45;20.05;;;;;;;-146.26;100.00;59860.63;4997191;28;20045;-75
2022/12/06 11:12:35;;;;;;;36.75;16.90;;;;;;;-146.26;100.00;59860.63;5024576;28;20124;-76
2022/12/06 11:15:24;;;;;;;80.47;18.33;;;;;;;-146.26;100.00;59860.63;4992612;28;20041;-75
2022/12/06 11:18:06;;;;;;;34.13;13.18;;;;;;;-146.26;100.00;59860.63;5011163;28;20128;-75
2022/12/06 11:21:09;;;;;;;43.15;15.70;;;;;;;-146.26;100.00;59860.63;5005565;28;20555;-76
2022/12/06 11:23:41;;;;;;;47.35;16.02;;;;;;;-146.26;100.00;59860.63;5006200;28;20081;-75
2022/12/06 11:26:29;;;;;;;49.20;27.33;;;;;;;-146.26;100.00;59860.63;4998772;28;20054;-76
2022/12/06 11:29:07;;;;;;;44.80;21.67;;;;;;;-146.26;100.00;59860.63;5005664;28;20050;-77
2022/12/06 11:31:54;;;;;;;36.08;17.42;;;;;;;-146.26;100.00;59860.63;5002304;28;20045;-75
2022/12/06 11:34:50;;;;;;;102.70;63.17;;;;;;;-146.26;100.00;59860.63;5006177;28;20155;-76
2022/12/06 11:37:18;;;;;;;63.33;38.15;;;;;;;-146.26;100.00;59860.63;4983740;28;20510;-76
2022/12/06 11:39:45;;;;;;;53.28;29.75;;;;;;;-146.26;100.00;59860.63;5006064;28;20038;-77
2022/12/06 11:42:16;;;;;;;38.65;21.52;;;;;;;-146.26;100.00;59860.63;5005316;28;20058;-75
2022/12/06 11:44:52;;;;;;;36.47;18.92;;;;;;;-146.26;100.00;59860.63;5000896;28;20800;-77
2022/12/06 11:47:21;;;;;;;35.15;19.85;;;;;;;-146.26;100.00;59860.63;5005804;28;20045;-77
2022/12/06 11:49:50;;;;;;;33.40;17.73;;;;;;;-146.26;100.00;59860.63;5004932;28;20049;-75
2022/12/06 11:52:44;;;;;;;30.98;17.10;;;;;;;-146.26;100.00;59860.63;5005126;28;20045;-75